sensor_id;sensor_type;location;lat;lon;timestamp;temperature;humidity
38746;DHT22;24488;0.000;0.000;2024-01-15T00:02:12;19.30;36.00
38746;DHT22;24488;0.000;0.000;2024-01-15T00:04:38;19.30;36.50
38746;DHT22;24488;0.000;0.000;2024-01-15T00:07:04;19.30;37.10
38746;DHT22;24488;0.000;0.000;2024-01-15T00:09:30;19.30;36.40
38746;DHT22;24488;0.000;0.000;2024-01-15T00:11:56;19.30;36.00
38746;DHT22;24488;0.000;0.000;2024-01-15T00:14:22;19.30;36.50
38746;DHT22;24488;0.000;0.000;2024-01-15T00:16:47;19.40;36.50
38746;DHT22;24488;0.000;0.000;2024-01-15T00:19:15;19.30;36.50
38746;DHT22;24488;0.000;0.000;2024-01-15T00:21:41;19.30;36.00
38746;DHT22;24488;0.000;0.000;2024-01-15T00:24:07;19.30;36.50
38746;DHT22;24488;0.000;0.000;2024-01-15T00:26:33;19.20;36.40
38746;DHT22;24488;0.000;0.000;2024-01-15T00:28:58;19.30;36.30
38746;DHT22;24488;0.000;0.000;2024-01-15T00:31:24;19.30;35.90
38746;DHT22;24488;0.000;0.000;2024-01-15T00:33:49;19.30;36.40
38746;DHT22;24488;0.000;0.000;2024-01-15T00:36:15;19.40;36.30
38746;DHT22;24488;0.000;0.000;2024-01-15T00:38:42;19.30;36.30
38746;DHT22;24488;0.000;0.000;2024-01-15T00:41:07;19.30;35.90
38746;DHT22;24488;0.000;0.000;2024-01-15T00:43:33;19.30;36.40
38746;DHT22;24488;0.000;0.000;2024-01-15T00:46:01;19.30;36.40
38746;DHT22;24488;0.000;0.000;2024-01-15T00:48:27;19.20;36.40
38746;DHT22;24488;0.000;0.000;2024-01-15T00:50:53;19.50;36.60
38746;DHT22;24488;0.000;0.000;2024-01-15T00:53:19;19.20;36.00
38746;DHT22;24488;0.000;0.000;2024-01-15T00:55:47;19.30;36.40
38746;DHT22;24488;0.000;0.000;2024-01-15T00:58:13;19.30;36.40
38746;DHT22;24488;0.000;0.000;2024-01-15T01:00:39;19.30;37.10
38746;DHT22;24488;0.000;0.000;2024-01-15T01:03:05;19.30;36.00
38746;DHT22;24488;0.000;0.000;2024-01-15T01:05:30;19.30;36.40
38746;DHT22;24488;0.000;0.000;2024-01-15T01:07:56;19.30;36.50
38746;DHT22;24488;0.000;0.000;2024-01-15T01:10:21;19.20;36.50
38746;DHT22;24488;0.000;0.000;2024-01-15T01:12:47;19.20;36.00
38746;DHT22;24488;0.000;0.000;2024-01-15T01:15:12;19.30;36.50
38746;DHT22;24488;0.000;0.000;2024-01-15T01:17:38;19.30;36.50
38746;DHT22;24488;0.000;0.000;2024-01-15T01:20:03;19.30;36.50
38746;DHT22;24488;0.000;0.000;2024-01-15T01:22:31;19.30;36.00
38746;DHT22;24488;0.000;0.000;2024-01-15T01:24:57;19.20;36.40
38746;DHT22;24488;0.000;0.000;2024-01-15T01:27:22;19.30;36.40
38746;DHT22;24488;0.000;0.000;2024-01-15T01:29:48;19.30;36.50
38746;DHT22;24488;0.000;0.000;2024-01-15T01:32:13;19.20;35.90
38746;DHT22;24488;0.000;0.000;2024-01-15T01:34:39;19.30;36.40
38746;DHT22;24488;0.000;0.000;2024-01-15T01:37:07;19.30;36.30
38746;DHT22;24488;0.000;0.000;2024-01-15T01:39:33;19.20;36.40
38746;DHT22;24488;0.000;0.000;2024-01-15T01:41:59;19.30;35.90
38746;DHT22;24488;0.000;0.000;2024-01-15T01:44:24;19.30;36.40
38746;DHT22;24488;0.000;0.000;2024-01-15T01:46:50;19.30;36.40
38746;DHT22;24488;0.000;0.000;2024-01-15T01:49:15;19.20;36.40
38746;DHT22;24488;0.000;0.000;2024-01-15T01:51:42;19.30;36.00
38746;DHT22;24488;0.000;0.000;2024-01-15T01:54:07;19.20;36.40
38746;DHT22;24488;0.000;0.000;2024-01-15T01:56:34;19.30;36.40
38746;DHT22;24488;0.000;0.000;2024-01-15T01:59:01;19.30;36.40
38746;DHT22;24488;0.000;0.000;2024-01-15T02:01:26;19.20;36.00
38746;DHT22;24488;0.000;0.000;2024-01-15T02:03:52;19.20;36.50
38746;DHT22;24488;0.000;0.000;2024-01-15T02:06:18;19.20;36.50
38746;DHT22;24488;0.000;0.000;2024-01-15T02:08:44;19.20;36.40
38746;DHT22;24488;0.000;0.000;2024-01-15T02:11:09;19.30;36.00
38746;DHT22;24488;0.000;0.000;2024-01-15T02:13:35;19.20;36.40
38746;DHT22;24488;0.000;0.000;2024-01-15T02:16:01;19.30;36.40
38746;DHT22;24488;0.000;0.000;2024-01-15T02:18:26;19.20;36.40
38746;DHT22;24488;0.000;0.000;2024-01-15T02:20:52;19.30;36.30
38746;DHT22;24488;0.000;0.000;2024-01-15T02:23:17;19.20;35.80
38746;DHT22;24488;0.000;0.000;2024-01-15T02:25:44;19.20;36.40
38746;DHT22;24488;0.000;0.000;2024-01-15T02:28:11;19.30;36.40
38746;DHT22;24488;0.000;0.000;2024-01-15T02:30:39;19.20;36.40
38746;DHT22;24488;0.000;0.000;2024-01-15T02:33:05;19.20;35.90
38746;DHT22;24488;0.000;0.000;2024-01-15T02:35:31;19.20;36.40
38746;DHT22;24488;0.000;0.000;2024-01-15T02:37:58;19.20;36.40
38746;DHT22;24488;0.000;0.000;2024-01-15T02:40:24;19.20;36.40
38746;DHT22;24488;0.000;0.000;2024-01-15T02:42:49;19.20;36.00
38746;DHT22;24488;0.000;0.000;2024-01-15T02:45:15;19.20;37.00
38746;DHT22;24488;0.000;0.000;2024-01-15T02:47:40;19.20;36.40
38746;DHT22;24488;0.000;0.000;2024-01-15T02:50:06;19.20;36.50
38746;DHT22;24488;0.000;0.000;2024-01-15T02:52:32;19.20;36.00
38746;DHT22;24488;0.000;0.000;2024-01-15T02:54:57;19.20;36.50
38746;DHT22;24488;0.000;0.000;2024-01-15T02:57:23;19.20;36.40
38746;DHT22;24488;0.000;0.000;2024-01-15T02:59:49;19.20;36.50
38746;DHT22;24488;0.000;0.000;2024-01-15T03:02:14;19.20;36.00
38746;DHT22;24488;0.000;0.000;2024-01-15T03:04:43;19.20;36.50
38746;DHT22;24488;0.000;0.000;2024-01-15T03:07:09;19.20;36.50
38746;DHT22;24488;0.000;0.000;2024-01-15T03:09:35;19.20;36.50
38746;DHT22;24488;0.000;0.000;2024-01-15T03:12:00;19.20;36.00
38746;DHT22;24488;0.000;0.000;2024-01-15T03:14:26;19.20;36.50
38746;DHT22;24488;0.000;0.000;2024-01-15T03:16:52;19.20;37.10
38746;DHT22;24488;0.000;0.000;2024-01-15T03:19:17;19.10;36.50
38746;DHT22;24488;0.000;0.000;2024-01-15T03:21:43;19.20;36.10
38746;DHT22;24488;0.000;0.000;2024-01-15T03:24:08;19.20;36.50
38746;DHT22;24488;0.000;0.000;2024-01-15T03:26:34;19.20;36.50
38746;DHT22;24488;0.000;0.000;2024-01-15T03:29:00;19.20;36.60
38746;DHT22;24488;0.000;0.000;2024-01-15T03:31:25;19.20;36.10
38746;DHT22;24488;0.000;0.000;2024-01-15T03:33:51;19.10;36.50
38746;DHT22;24488;0.000;0.000;2024-01-15T03:36:16;19.20;36.40
38746;DHT22;24488;0.000;0.000;2024-01-15T03:38:42;19.20;36.50
38746;DHT22;24488;0.000;0.000;2024-01-15T03:41:07;19.20;36.00
38746;DHT22;24488;0.000;0.000;2024-01-15T03:43:33;19.10;36.40
38746;DHT22;24488;0.000;0.000;2024-01-15T03:45:59;19.20;36.50
38746;DHT22;24488;0.000;0.000;2024-01-15T03:48:24;19.20;36.50
38746;DHT22;24488;0.000;0.000;2024-01-15T03:50:50;19.20;36.50
38746;DHT22;24488;0.000;0.000;2024-01-15T03:53:15;19.20;36.10
38746;DHT22;24488;0.000;0.000;2024-01-15T03:55:41;19.10;36.50
38746;DHT22;24488;0.000;0.000;2024-01-15T03:58:07;19.20;36.50
38746;DHT22;24488;0.000;0.000;2024-01-15T04:00:34;19.10;36.50
38746;DHT22;24488;0.000;0.000;2024-01-15T04:02:59;19.10;36.00
38746;DHT22;24488;0.000;0.000;2024-01-15T04:05:25;19.10;36.50
38746;DHT22;24488;0.000;0.000;2024-01-15T04:07:51;19.10;36.50
38746;DHT22;24488;0.000;0.000;2024-01-15T04:10:16;19.10;36.40
38746;DHT22;24488;0.000;0.000;2024-01-15T04:12:42;19.10;36.00
38746;DHT22;24488;0.000;0.000;2024-01-15T04:15:07;19.10;36.50
38746;DHT22;24488;0.000;0.000;2024-01-15T04:17:33;19.10;36.50
38746;DHT22;24488;0.000;0.000;2024-01-15T04:19:59;19.20;36.50
38746;DHT22;24488;0.000;0.000;2024-01-15T04:22:25;19.20;36.00
38746;DHT22;24488;0.000;0.000;2024-01-15T04:24:51;19.20;37.00
38746;DHT22;24488;0.000;0.000;2024-01-15T04:27:17;19.10;36.40
38746;DHT22;24488;0.000;0.000;2024-01-15T04:29:43;19.10;36.50
38746;DHT22;24488;0.000;0.000;2024-01-15T04:32:09;19.10;36.00
38746;DHT22;24488;0.000;0.000;2024-01-15T04:34:35;19.10;36.40
38746;DHT22;24488;0.000;0.000;2024-01-15T04:37:01;19.10;36.40
38746;DHT22;24488;0.000;0.000;2024-01-15T04:39:27;19.20;36.40
38746;DHT22;24488;0.000;0.000;2024-01-15T04:41:52;19.10;36.00
38746;DHT22;24488;0.000;0.000;2024-01-15T04:44:18;19.20;36.50
38746;DHT22;24488;0.000;0.000;2024-01-15T04:46:44;19.10;36.40
38746;DHT22;24488;0.000;0.000;2024-01-15T04:49:09;19.10;36.40
38746;DHT22;24488;0.000;0.000;2024-01-15T04:51:35;19.10;36.00
38746;DHT22;24488;0.000;0.000;2024-01-15T04:54:01;19.20;36.60
38746;DHT22;24488;0.000;0.000;2024-01-15T04:56:26;19.10;36.40
38746;DHT22;24488;0.000;0.000;2024-01-15T04:58:52;19.10;36.50
38746;DHT22;24488;0.000;0.000;2024-01-15T05:01:17;19.10;36.10
38746;DHT22;24488;0.000;0.000;2024-01-15T05:03:43;19.10;36.60
38746;DHT22;24488;0.000;0.000;2024-01-15T05:06:09;19.10;36.50
38746;DHT22;24488;0.000;0.000;2024-01-15T05:08:34;19.10;36.50
38746;DHT22;24488;0.000;0.000;2024-01-15T05:11:00;19.10;36.50
38746;DHT22;24488;0.000;0.000;2024-01-15T05:13:25;19.10;36.00
38746;DHT22;24488;0.000;0.000;2024-01-15T05:15:51;19.10;37.10
38746;DHT22;24488;0.000;0.000;2024-01-15T05:18:16;19.10;36.50
38746;DHT22;24488;0.000;0.000;2024-01-15T05:20:42;19.10;36.50
38746;DHT22;24488;0.000;0.000;2024-01-15T05:23:08;19.10;36.10
38746;DHT22;24488;0.000;0.000;2024-01-15T05:25:33;19.10;36.60
38746;DHT22;24488;0.000;0.000;2024-01-15T05:27:59;19.10;36.50
38746;DHT22;24488;0.000;0.000;2024-01-15T05:30:24;19.10;36.50
38746;DHT22;24488;0.000;0.000;2024-01-15T05:32:50;19.10;36.10
38746;DHT22;24488;0.000;0.000;2024-01-15T05:35:16;19.10;36.60
38746;DHT22;24488;0.000;0.000;2024-01-15T05:37:42;19.10;36.50
38746;DHT22;24488;0.000;0.000;2024-01-15T05:40:09;19.10;36.50
38746;DHT22;24488;0.000;0.000;2024-01-15T05:42:35;19.10;36.10
38746;DHT22;24488;0.000;0.000;2024-01-15T05:45:00;19.10;36.50
38746;DHT22;24488;0.000;0.000;2024-01-15T05:47:28;19.10;36.50
38746;DHT22;24488;0.000;0.000;2024-01-15T05:49:54;19.10;36.60
38746;DHT22;24488;0.000;0.000;2024-01-15T05:52:20;19.10;36.00
38746;DHT22;24488;0.000;0.000;2024-01-15T05:54:47;19.10;36.50
38746;DHT22;24488;0.000;0.000;2024-01-15T05:57:13;19.10;36.50
38746;DHT22;24488;0.000;0.000;2024-01-15T05:59:38;19.10;37.10
38746;DHT22;24488;0.000;0.000;2024-01-15T06:02:04;19.10;36.10
38746;DHT22;24488;0.000;0.000;2024-01-15T06:04:29;19.10;36.60
38746;DHT22;24488;0.000;0.000;2024-01-15T06:06:55;19.00;36.60
38746;DHT22;24488;0.000;0.000;2024-01-15T06:09:20;19.10;36.60
38746;DHT22;24488;0.000;0.000;2024-01-15T06:11:46;19.00;36.10
38746;DHT22;24488;0.000;0.000;2024-01-15T06:14:12;19.00;36.50
38746;DHT22;24488;0.000;0.000;2024-01-15T06:16:37;19.10;36.50
38746;DHT22;24488;0.000;0.000;2024-01-15T06:19:03;19.10;36.60
38746;DHT22;24488;0.000;0.000;2024-01-15T06:21:28;19.10;36.10
38746;DHT22;24488;0.000;0.000;2024-01-15T06:23:54;19.10;36.50
38746;DHT22;24488;0.000;0.000;2024-01-15T06:26:22;19.00;36.50
38746;DHT22;24488;0.000;0.000;2024-01-15T06:28:48;19.00;36.50
38746;DHT22;24488;0.000;0.000;2024-01-15T06:31:13;19.00;36.10
38746;DHT22;24488;0.000;0.000;2024-01-15T06:33:39;19.00;36.70
38746;DHT22;24488;0.000;0.000;2024-01-15T06:36:05;19.10;36.50
38746;DHT22;24488;0.000;0.000;2024-01-15T06:38:31;19.00;36.40
38746;DHT22;24488;0.000;0.000;2024-01-15T06:40:57;19.00;36.50
38746;DHT22;24488;0.000;0.000;2024-01-15T06:43:22;19.00;36.00
38746;DHT22;24488;0.000;0.000;2024-01-15T06:45:48;19.10;36.50
38746;DHT22;24488;0.000;0.000;2024-01-15T06:48:14;19.00;36.40
38746;DHT22;24488;0.000;0.000;2024-01-15T06:50:44;19.00;36.50
38746;DHT22;24488;0.000;0.000;2024-01-15T06:53:10;19.10;36.00
38746;DHT22;24488;0.000;0.000;2024-01-15T06:55:36;19.00;36.50
38746;DHT22;24488;0.000;0.000;2024-01-15T06:58:01;19.10;36.50
38746;DHT22;24488;0.000;0.000;2024-01-15T07:00:27;19.10;36.50
38746;DHT22;24488;0.000;0.000;2024-01-15T07:02:52;19.00;36.00
38746;DHT22;24488;0.000;0.000;2024-01-15T07:05:20;19.00;36.60
38746;DHT22;24488;0.000;0.000;2024-01-15T07:07:46;19.00;36.50
38746;DHT22;24488;0.000;0.000;2024-01-15T07:10:12;19.00;36.40
38746;DHT22;24488;0.000;0.000;2024-01-15T07:12:38;19.00;36.00
38746;DHT22;24488;0.000;0.000;2024-01-15T07:15:04;19.00;36.50
38746;DHT22;24488;0.000;0.000;2024-01-15T07:17:32;19.00;36.50
38746;DHT22;24488;0.000;0.000;2024-01-15T07:19:57;19.10;36.50
38746;DHT22;24488;0.000;0.000;2024-01-15T07:22:23;19.10;36.00
38746;DHT22;24488;0.000;0.000;2024-01-15T07:24:48;19.00;36.40
38746;DHT22;24488;0.000;0.000;2024-01-15T07:27:14;19.00;36.50
38746;DHT22;24488;0.000;0.000;2024-01-15T07:29:40;19.10;36.50
38746;DHT22;24488;0.000;0.000;2024-01-15T07:32:05;19.10;36.00
38746;DHT22;24488;0.000;0.000;2024-01-15T07:34:32;19.00;36.40
38746;DHT22;24488;0.000;0.000;2024-01-15T07:36:58;19.00;36.90
38746;DHT22;24488;0.000;0.000;2024-01-15T07:39:24;19.10;36.40
38746;DHT22;24488;0.000;0.000;2024-01-15T07:41:50;19.10;35.80
38746;DHT22;24488;0.000;0.000;2024-01-15T07:44:16;19.10;36.30
38746;DHT22;24488;0.000;0.000;2024-01-15T07:46:46;19.10;36.30
38746;DHT22;24488;0.000;0.000;2024-01-15T07:49:12;19.10;36.40
38746;DHT22;24488;0.000;0.000;2024-01-15T07:51:37;19.10;35.80
38746;DHT22;24488;0.000;0.000;2024-01-15T07:54:03;19.10;36.30
38746;DHT22;24488;0.000;0.000;2024-01-15T07:56:28;19.20;36.30
38746;DHT22;24488;0.000;0.000;2024-01-15T07:58:54;19.20;36.20
38746;DHT22;24488;0.000;0.000;2024-01-15T08:01:20;19.10;35.80
38746;DHT22;24488;0.000;0.000;2024-01-15T08:03:45;19.10;36.30
38746;DHT22;24488;0.000;0.000;2024-01-15T08:06:11;19.10;36.30
38746;DHT22;24488;0.000;0.000;2024-01-15T08:08:37;19.20;36.30
38746;DHT22;24488;0.000;0.000;2024-01-15T08:11:02;19.10;35.80
38746;DHT22;24488;0.000;0.000;2024-01-15T08:13:28;19.10;36.30
38746;DHT22;24488;0.000;0.000;2024-01-15T08:15:54;19.10;36.20
38746;DHT22;24488;0.000;0.000;2024-01-15T08:18:19;19.10;36.20
38746;DHT22;24488;0.000;0.000;2024-01-15T08:20:46;19.20;36.10
38746;DHT22;24488;0.000;0.000;2024-01-15T08:23:12;19.20;35.70
38746;DHT22;24488;0.000;0.000;2024-01-15T08:25:38;19.20;36.10
38746;DHT22;24488;0.000;0.000;2024-01-15T08:28:03;19.20;36.10
38746;DHT22;24488;0.000;0.000;2024-01-15T08:30:29;19.20;36.00
38746;DHT22;24488;0.000;0.000;2024-01-15T08:32:55;19.20;35.70
38746;DHT22;24488;0.000;0.000;2024-01-15T08:35:21;19.20;36.30
38746;DHT22;24488;0.000;0.000;2024-01-15T08:37:48;19.10;36.30
38746;DHT22;24488;0.000;0.000;2024-01-15T08:40:15;19.10;36.20
38746;DHT22;24488;0.000;0.000;2024-01-15T08:42:41;19.20;35.70
38746;DHT22;24488;0.000;0.000;2024-01-15T08:45:06;19.10;36.00
38746;DHT22;24488;0.000;0.000;2024-01-15T08:47:32;19.20;36.00
38746;DHT22;24488;0.000;0.000;2024-01-15T08:49:58;19.20;36.00
38746;DHT22;24488;0.000;0.000;2024-01-15T08:52:24;19.20;35.20
38746;DHT22;24488;0.000;0.000;2024-01-15T08:54:49;19.20;35.70
38746;DHT22;24488;0.000;0.000;2024-01-15T08:57:15;19.20;35.70
38746;DHT22;24488;0.000;0.000;2024-01-15T08:59:41;19.20;36.00
38746;DHT22;24488;0.000;0.000;2024-01-15T09:02:07;19.10;35.80
38746;DHT22;24488;0.000;0.000;2024-01-15T09:04:33;19.10;36.30
38746;DHT22;24488;0.000;0.000;2024-01-15T09:06:58;19.00;36.30
38746;DHT22;24488;0.000;0.000;2024-01-15T09:09:24;19.00;36.50
38746;DHT22;24488;0.000;0.000;2024-01-15T09:11:51;19.00;36.10
38746;DHT22;24488;0.000;0.000;2024-01-15T09:14:17;19.00;36.60
38746;DHT22;24488;0.000;0.000;2024-01-15T09:16:42;19.00;36.50
38746;DHT22;24488;0.000;0.000;2024-01-15T09:19:08;19.00;36.50
38746;DHT22;24488;0.000;0.000;2024-01-15T09:21:34;18.90;36.10
38746;DHT22;24488;0.000;0.000;2024-01-15T09:23:59;19.00;36.60
38746;DHT22;24488;0.000;0.000;2024-01-15T09:26:25;19.00;36.60
38746;DHT22;24488;0.000;0.000;2024-01-15T09:28:51;19.00;36.60
38746;DHT22;24488;0.000;0.000;2024-01-15T09:31:17;19.00;36.10
38746;DHT22;24488;0.000;0.000;2024-01-15T09:33:43;19.00;36.60
38746;DHT22;24488;0.000;0.000;2024-01-15T09:36:09;19.00;36.50
38746;DHT22;24488;0.000;0.000;2024-01-15T09:38:34;19.00;36.60
38746;DHT22;24488;0.000;0.000;2024-01-15T09:41:00;19.00;36.50
38746;DHT22;24488;0.000;0.000;2024-01-15T09:43:26;19.00;36.00
38746;DHT22;24488;0.000;0.000;2024-01-15T09:45:51;19.00;36.40
38746;DHT22;24488;0.000;0.000;2024-01-15T09:48:19;19.10;36.30
38746;DHT22;24488;0.000;0.000;2024-01-15T09:50:45;18.50;36.10
38746;DHT22;24488;0.000;0.000;2024-01-15T09:53:10;19.00;35.90
38746;DHT22;24488;0.000;0.000;2024-01-15T09:55:37;19.10;36.30
38746;DHT22;24488;0.000;0.000;2024-01-15T09:58:03;19.10;36.30
38746;DHT22;24488;0.000;0.000;2024-01-15T10:00:29;19.10;36.30
38746;DHT22;24488;0.000;0.000;2024-01-15T10:02:56;19.00;35.90
38746;DHT22;24488;0.000;0.000;2024-01-15T10:05:22;19.10;36.40
38746;DHT22;24488;0.000;0.000;2024-01-15T10:07:48;19.10;36.40
38746;DHT22;24488;0.000;0.000;2024-01-15T10:10:15;19.10;36.40
38746;DHT22;24488;0.000;0.000;2024-01-15T10:12:40;19.10;35.90
38746;DHT22;24488;0.000;0.000;2024-01-15T10:15:10;19.00;36.40
38746;DHT22;24488;0.000;0.000;2024-01-15T10:17:37;19.10;36.40
38746;DHT22;24488;0.000;0.000;2024-01-15T10:20:07;19.10;36.40
38746;DHT22;24488;0.000;0.000;2024-01-15T10:22:38;19.00;35.90
38746;DHT22;24488;0.000;0.000;2024-01-15T10:25:05;19.00;36.40
38746;DHT22;24488;0.000;0.000;2024-01-15T10:27:31;19.00;36.40
38746;DHT22;24488;0.000;0.000;2024-01-15T10:30:00;19.10;36.30
38746;DHT22;24488;0.000;0.000;2024-01-15T10:32:27;19.10;35.90
38746;DHT22;24488;0.000;0.000;2024-01-15T10:34:54;19.10;36.40
38746;DHT22;24488;0.000;0.000;2024-01-15T10:37:19;19.10;36.40
38746;DHT22;24488;0.000;0.000;2024-01-15T10:39:48;19.10;36.30
38746;DHT22;24488;0.000;0.000;2024-01-15T10:42:14;19.10;35.90
38746;DHT22;24488;0.000;0.000;2024-01-15T10:44:40;19.10;36.40
38746;DHT22;24488;0.000;0.000;2024-01-15T10:47:08;19.00;36.40
38746;DHT22;24488;0.000;0.000;2024-01-15T10:49:34;19.00;36.40
38746;DHT22;24488;0.000;0.000;2024-01-15T10:52:03;19.00;36.00
38746;DHT22;24488;0.000;0.000;2024-01-15T10:54:29;19.00;36.40
38746;DHT22;24488;0.000;0.000;2024-01-15T10:56:58;19.10;36.40
38746;DHT22;24488;0.000;0.000;2024-01-15T10:59:23;19.10;36.30
38746;DHT22;24488;0.000;0.000;2024-01-15T11:01:49;19.10;35.80
38746;DHT22;24488;0.000;0.000;2024-01-15T11:04:18;19.20;36.20
38746;DHT22;24488;0.000;0.000;2024-01-15T11:06:45;19.20;36.20
38746;DHT22;24488;0.000;0.000;2024-01-15T11:09:13;19.20;36.20
38746;DHT22;24488;0.000;0.000;2024-01-15T11:11:41;19.10;35.80
38746;DHT22;24488;0.000;0.000;2024-01-15T11:14:08;19.10;36.30
38746;DHT22;24488;0.000;0.000;2024-01-15T11:16:53;19.10;36.30
38746;DHT22;24488;0.000;0.000;2024-01-15T11:19:19;19.10;36.30
38746;DHT22;24488;0.000;0.000;2024-01-15T11:21:44;19.10;35.90
38746;DHT22;24488;0.000;0.000;2024-01-15T11:24:10;19.10;36.30
38746;DHT22;24488;0.000;0.000;2024-01-15T11:29:06;19.10;36.30
38746;DHT22;24488;0.000;0.000;2024-01-15T11:34:07;19.20;36.30
38746;DHT22;24488;0.000;0.000;2024-01-15T11:41:56;19.20;35.80
38746;DHT22;24488;0.000;0.000;2024-01-15T11:44:21;19.10;36.30
38746;DHT22;24488;0.000;0.000;2024-01-15T11:46:53;19.10;36.30
38746;DHT22;24488;0.000;0.000;2024-01-15T11:52:11;19.20;35.80
38746;DHT22;24488;0.000;0.000;2024-01-15T11:54:40;19.10;36.30
38746;DHT22;24488;0.000;0.000;2024-01-15T11:57:15;18.50;36.10
38746;DHT22;24488;0.000;0.000;2024-01-15T11:59:47;19.10;36.40
38746;DHT22;24488;0.000;0.000;2024-01-15T12:02:13;19.10;35.80
38746;DHT22;24488;0.000;0.000;2024-01-15T12:04:39;19.10;36.30
38746;DHT22;24488;0.000;0.000;2024-01-15T12:07:05;19.10;36.30
38746;DHT22;24488;0.000;0.000;2024-01-15T12:09:30;19.10;36.30
38746;DHT22;24488;0.000;0.000;2024-01-15T12:12:03;19.10;35.90
38746;DHT22;24488;0.000;0.000;2024-01-15T12:14:32;19.10;36.40
38746;DHT22;24488;0.000;0.000;2024-01-15T12:17:00;19.00;36.30
38746;DHT22;24488;0.000;0.000;2024-01-15T12:19:25;19.10;36.30
38746;DHT22;24488;0.000;0.000;2024-01-15T12:21:51;19.10;35.90
38746;DHT22;24488;0.000;0.000;2024-01-15T12:24:17;19.10;36.40
38746;DHT22;24488;0.000;0.000;2024-01-15T12:26:43;19.10;36.40
38746;DHT22;24488;0.000;0.000;2024-01-15T12:29:10;19.20;36.40
38746;DHT22;24488;0.000;0.000;2024-01-15T12:31:36;19.10;35.80
38746;DHT22;24488;0.000;0.000;2024-01-15T12:34:01;19.10;36.30
38746;DHT22;24488;0.000;0.000;2024-01-15T12:36:30;19.10;36.30
38746;DHT22;24488;0.000;0.000;2024-01-15T12:38:59;19.20;36.30
38746;DHT22;24488;0.000;0.000;2024-01-15T12:41:27;19.20;35.70
38746;DHT22;24488;0.000;0.000;2024-01-15T12:43:53;19.20;36.20
38746;DHT22;24488;0.000;0.000;2024-01-15T12:46:19;19.20;36.20
38746;DHT22;24488;0.000;0.000;2024-01-15T12:48:44;19.20;36.20
38746;DHT22;24488;0.000;0.000;2024-01-15T12:51:10;19.10;35.80
38746;DHT22;24488;0.000;0.000;2024-01-15T12:53:35;19.10;36.30
38746;DHT22;24488;0.000;0.000;2024-01-15T12:56:01;19.10;36.30
38746;DHT22;24488;0.000;0.000;2024-01-15T12:58:27;19.10;36.30
38746;DHT22;24488;0.000;0.000;2024-01-15T13:00:52;19.10;36.30
38746;DHT22;24488;0.000;0.000;2024-01-15T13:03:18;19.10;35.90
38746;DHT22;24488;0.000;0.000;2024-01-15T13:05:43;19.10;36.40
38746;DHT22;24488;0.000;0.000;2024-01-15T13:08:10;19.10;36.40
38746;DHT22;24488;0.000;0.000;2024-01-15T13:10:36;19.10;36.40
38746;DHT22;24488;0.000;0.000;2024-01-15T13:13:01;19.10;35.90
38746;DHT22;24488;0.000;0.000;2024-01-15T13:15:27;19.10;36.40
38746;DHT22;24488;0.000;0.000;2024-01-15T13:17:52;19.10;36.40
38746;DHT22;24488;0.000;0.000;2024-01-15T13:20:18;19.10;36.40
38746;DHT22;24488;0.000;0.000;2024-01-15T13:22:43;19.10;36.00
38746;DHT22;24488;0.000;0.000;2024-01-15T13:25:10;19.10;36.40
38746;DHT22;24488;0.000;0.000;2024-01-15T13:27:36;19.10;36.30
38746;DHT22;24488;0.000;0.000;2024-01-15T13:30:02;19.10;36.20
38746;DHT22;24488;0.000;0.000;2024-01-15T13:32:29;19.20;35.70
38746;DHT22;24488;0.000;0.000;2024-01-15T13:34:55;19.20;36.30
38746;DHT22;24488;0.000;0.000;2024-01-15T13:37:21;19.20;36.30
38746;DHT22;24488;0.000;0.000;2024-01-15T13:39:50;19.10;36.40
38746;DHT22;24488;0.000;0.000;2024-01-15T13:42:17;19.10;35.90
38746;DHT22;24488;0.000;0.000;2024-01-15T13:44:42;19.10;36.40
38746;DHT22;24488;0.000;0.000;2024-01-15T13:47:08;19.10;36.30
38746;DHT22;24488;0.000;0.000;2024-01-15T13:49:34;19.10;36.30
38746;DHT22;24488;0.000;0.000;2024-01-15T13:52:01;19.10;35.80
38746;DHT22;24488;0.000;0.000;2024-01-15T13:54:29;19.10;36.30
38746;DHT22;24488;0.000;0.000;2024-01-15T13:56:55;19.10;36.30
38746;DHT22;24488;0.000;0.000;2024-01-15T13:59:21;19.10;36.30
38746;DHT22;24488;0.000;0.000;2024-01-15T14:01:46;19.10;35.90
38746;DHT22;24488;0.000;0.000;2024-01-15T14:04:12;19.10;36.40
38746;DHT22;24488;0.000;0.000;2024-01-15T14:06:38;19.10;36.30
38746;DHT22;24488;0.000;0.000;2024-01-15T14:09:04;19.10;36.30
38746;DHT22;24488;0.000;0.000;2024-01-15T14:11:30;19.10;35.90
38746;DHT22;24488;0.000;0.000;2024-01-15T14:13:56;19.10;36.40
38746;DHT22;24488;0.000;0.000;2024-01-15T14:16:22;19.10;36.30
38746;DHT22;24488;0.000;0.000;2024-01-15T14:18:47;19.10;36.30
38746;DHT22;24488;0.000;0.000;2024-01-15T14:21:13;19.10;35.90
38746;DHT22;24488;0.000;0.000;2024-01-15T14:23:39;19.10;36.30
38746;DHT22;24488;0.000;0.000;2024-01-15T14:26:05;19.10;36.30
38746;DHT22;24488;0.000;0.000;2024-01-15T14:28:30;19.20;36.30
38746;DHT22;24488;0.000;0.000;2024-01-15T14:30:56;19.10;36.30
38746;DHT22;24488;0.000;0.000;2024-01-15T14:33:24;19.20;35.90
38746;DHT22;24488;0.000;0.000;2024-01-15T14:35:50;19.20;36.20
38746;DHT22;24488;0.000;0.000;2024-01-15T14:38:16;19.20;36.20
38746;DHT22;24488;0.000;0.000;2024-01-15T14:40:42;19.20;36.30
38746;DHT22;24488;0.000;0.000;2024-01-15T14:43:09;19.20;35.80
38746;DHT22;24488;0.000;0.000;2024-01-15T14:45:35;19.20;36.30
38746;DHT22;24488;0.000;0.000;2024-01-15T14:48:01;19.10;36.30
38746;DHT22;24488;0.000;0.000;2024-01-15T14:50:26;19.10;36.30
38746;DHT22;24488;0.000;0.000;2024-01-15T14:52:52;19.10;35.80
38746;DHT22;24488;0.000;0.000;2024-01-15T14:55:17;19.20;36.30
38746;DHT22;24488;0.000;0.000;2024-01-15T14:57:43;19.20;36.30
38746;DHT22;24488;0.000;0.000;2024-01-15T15:00:09;19.10;36.20
38746;DHT22;24488;0.000;0.000;2024-01-15T15:02:37;19.10;35.90
38746;DHT22;24488;0.000;0.000;2024-01-15T15:05:03;19.10;36.40
38746;DHT22;24488;0.000;0.000;2024-01-15T15:07:29;19.10;36.40
38746;DHT22;24488;0.000;0.000;2024-01-15T15:09:55;19.10;36.40
38746;DHT22;24488;0.000;0.000;2024-01-15T15:12:20;19.10;35.80
38746;DHT22;24488;0.000;0.000;2024-01-15T15:14:46;19.20;36.30
38746;DHT22;24488;0.000;0.000;2024-01-15T15:17:11;19.10;36.20
38746;DHT22;24488;0.000;0.000;2024-01-15T15:19:37;19.10;36.30
38746;DHT22;24488;0.000;0.000;2024-01-15T15:22:03;19.10;35.80
38746;DHT22;24488;0.000;0.000;2024-01-15T15:24:28;19.10;36.30
38746;DHT22;24488;0.000;0.000;2024-01-15T15:26:54;19.10;36.30
38746;DHT22;24488;0.000;0.000;2024-01-15T15:29:19;19.10;36.30
38746;DHT22;24488;0.000;0.000;2024-01-15T15:31:45;19.10;35.80
38746;DHT22;24488;0.000;0.000;2024-01-15T15:34:11;19.20;36.30
38746;DHT22;24488;0.000;0.000;2024-01-15T15:36:36;19.10;36.30
38746;DHT22;24488;0.000;0.000;2024-01-15T15:39:02;19.10;36.30
38746;DHT22;24488;0.000;0.000;2024-01-15T15:41:27;19.10;35.80
38746;DHT22;24488;0.000;0.000;2024-01-15T15:43:53;19.10;36.30
38746;DHT22;24488;0.000;0.000;2024-01-15T15:46:19;19.10;36.30
38746;DHT22;24488;0.000;0.000;2024-01-15T15:48:45;19.10;36.30
38746;DHT22;24488;0.000;0.000;2024-01-15T15:51:10;19.10;35.80